createdAt,value
2024-01-14T00:00:00.776Z,0.47
2024-01-14T00:01:00.705Z,0.44
2024-01-14T00:02:00.705Z,0.44
2024-01-14T00:03:00.725Z,0.42
2024-01-14T00:04:00.798Z,0.42
2024-01-14T00:05:00.706Z,0.39
2024-01-14T00:06:00.895Z,0.39
2024-01-14T00:07:00.778Z,0.41
2024-01-14T00:08:00.754Z,0.36
2024-01-14T00:09:00.829Z,0.44
2024-01-14T00:10:00.736Z,0.42
2024-01-14T00:11:00.744Z,0.47
2024-01-14T00:12:00.783Z,0.38
2024-01-14T00:13:00.761Z,0.42
2024-01-14T00:14:00.755Z,0.41
2024-01-14T00:15:00.804Z,0.44
2024-01-14T00:16:00.792Z,0.57
2024-01-14T00:17:00.775Z,0.50
2024-01-14T00:18:00.883Z,0.53
2024-01-14T00:19:00.914Z,0.55
2024-01-14T00:20:01.079Z,0.51
2024-01-14T00:21:00.867Z,0.65
2024-01-14T00:22:00.817Z,0.61
2024-01-14T00:23:00.801Z,0.57
2024-01-14T00:24:00.867Z,0.61
2024-01-14T00:25:00.807Z,0.58
2024-01-14T00:26:00.819Z,0.62
2024-01-14T00:27:00.922Z,0.62
2024-01-14T00:28:00.840Z,0.58
2024-01-14T00:29:00.818Z,0.60
2024-01-14T00:30:00.867Z,0.60
2024-01-14T00:31:01.056Z,0.61
2024-01-14T00:32:00.830Z,0.46
2024-01-14T00:33:00.938Z,0.47
2024-01-14T00:34:01.098Z,0.50
2024-01-14T00:35:00.982Z,0.46
2024-01-14T00:36:00.900Z,0.41
2024-01-14T00:37:00.839Z,0.41
2024-01-14T00:38:00.849Z,0.32
2024-01-14T00:39:00.878Z,0.49
2024-01-14T00:40:00.864Z,0.38
2024-01-14T00:41:00.868Z,0.33
2024-01-14T00:42:00.899Z,0.29
2024-01-14T00:43:00.863Z,0.31
2024-01-14T00:44:00.855Z,0.24
2024-01-14T00:45:00.938Z,0.32
2024-01-14T00:46:00.863Z,0.33
2024-01-14T00:47:00.863Z,0.32
2024-01-14T00:48:01.022Z,0.49
2024-01-14T00:49:01.060Z,0.46
2024-01-14T00:50:00.952Z,0.42
2024-01-14T00:51:01.008Z,0.50
2024-01-14T00:52:00.934Z,0.49
2024-01-14T00:53:00.896Z,0.47
2024-01-14T00:54:00.967Z,0.51
2024-01-14T00:55:00.921Z,0.49
2024-01-14T00:56:00.985Z,0.49
2024-01-14T00:57:00.939Z,0.57
2024-01-14T00:58:00.906Z,0.58
2024-01-14T00:59:00.917Z,0.61
2024-01-14T01:00:01.014Z,0.65
2024-01-14T01:01:00.970Z,0.66
2024-01-14T01:02:00.963Z,0.76
2024-01-14T01:03:00.991Z,0.78
2024-01-14T01:04:01.045Z,0.79
2024-01-14T01:05:01.016Z,0.79
2024-01-14T01:06:01.030Z,0.78
2024-01-14T01:07:00.970Z,0.70
2024-01-14T01:08:00.978Z,0.76
2024-01-14T01:09:00.992Z,0.73
2024-01-14T01:10:00.986Z,0.66
2024-01-14T01:11:00.974Z,0.73
2024-01-14T01:12:01.064Z,0.69
2024-01-14T01:13:01.010Z,0.70
2024-01-14T01:14:01.025Z,0.79
2024-01-14T01:15:01.215Z,0.68
2024-01-14T01:16:01.000Z,0.75
2024-01-14T01:17:01.009Z,0.70
2024-01-14T01:18:01.253Z,0.68
2024-01-14T01:19:01.175Z,0.65
2024-01-14T01:20:01.078Z,0.66
2024-01-14T01:21:01.071Z,0.65
2024-01-14T01:22:01.037Z,0.57
2024-01-14T01:23:01.095Z,0.58
2024-01-14T01:24:01.082Z,0.65
2024-01-14T01:25:01.051Z,0.66
2024-01-14T01:26:01.052Z,0.65
2024-01-14T01:27:01.161Z,0.62
2024-01-14T01:28:01.090Z,0.68
2024-01-14T01:29:02.642Z,0.60
2024-01-14T01:30:01.163Z,0.68
2024-01-14T01:31:01.113Z,0.65
2024-01-14T01:33:01.297Z,0.68
2024-01-14T01:34:01.154Z,0.79
2024-01-14T01:35:01.478Z,0.84
2024-01-14T01:36:01.137Z,0.84
2024-01-14T01:37:01.099Z,0.87
2024-01-14T01:38:01.109Z,0.96
2024-01-14T01:39:01.118Z,0.91
2024-01-14T01:40:01.113Z,0.79
2024-01-14T01:41:01.120Z,0.90
2024-01-14T01:42:01.217Z,0.83
2024-01-14T01:43:01.137Z,0.75
2024-01-14T01:44:01.209Z,0.78
2024-01-14T01:45:01.256Z,0.80
2024-01-14T01:46:01.143Z,0.70
2024-01-14T01:47:01.155Z,0.75
2024-01-14T01:48:01.200Z,0.78
2024-01-14T01:49:01.339Z,0.68
2024-01-14T01:50:01.159Z,0.76
2024-01-14T01:51:01.234Z,0.78
2024-01-14T01:52:01.173Z,0.94
2024-01-14T01:53:01.173Z,0.93
2024-01-14T01:54:01.268Z,0.91
2024-01-14T01:55:01.190Z,1.00
2024-01-14T01:56:01.228Z,0.93
2024-01-14T01:57:01.193Z,0.97
2024-01-14T01:58:01.217Z,0.98
2024-01-14T01:59:01.198Z,0.80
2024-01-14T02:00:01.294Z,0.76
2024-01-14T02:01:01.241Z,0.78
2024-01-14T02:02:01.255Z,0.79
2024-01-14T02:03:01.320Z,0.87
2024-01-14T02:04:01.316Z,0.96
2024-01-14T02:05:01.289Z,1.06
2024-01-14T02:06:01.283Z,1.12
2024-01-14T02:07:01.243Z,1.11
2024-01-14T02:08:01.252Z,1.08
2024-01-14T02:09:01.271Z,1.12
2024-01-14T02:10:01.272Z,0.98
2024-01-14T02:11:01.261Z,0.97
2024-01-14T02:12:01.323Z,0.97
2024-01-14T02:13:01.257Z,0.88
2024-01-14T02:14:01.258Z,0.87
2024-01-14T02:15:01.311Z,0.76
2024-01-14T02:16:01.276Z,0.80
2024-01-14T02:17:01.262Z,0.68
2024-01-14T02:18:01.335Z,0.76
2024-01-14T02:19:01.619Z,0.78
2024-01-14T02:20:01.266Z,0.84
2024-01-14T02:21:01.281Z,0.75
2024-01-14T02:22:01.270Z,0.69
2024-01-14T02:23:01.274Z,0.70
2024-01-14T02:24:01.314Z,0.70
2024-01-14T02:25:01.293Z,0.70
2024-01-14T02:26:01.285Z,0.65
2024-01-14T02:27:01.340Z,0.65
2024-01-14T02:28:01.296Z,0.65
2024-01-14T02:29:01.294Z,0.72
2024-01-14T02:30:01.358Z,0.73
2024-01-14T02:31:01.428Z,0.70
2024-01-14T02:32:01.382Z,0.68
2024-01-14T02:33:01.455Z,0.68
2024-01-14T02:34:01.459Z,0.66
2024-01-14T02:35:01.326Z,0.62
2024-01-14T02:36:01.347Z,0.58
2024-01-14T02:37:01.321Z,0.51
2024-01-14T02:38:01.343Z,0.46
2024-01-14T02:39:01.374Z,0.36
2024-01-14T02:40:01.334Z,0.28
2024-01-14T02:41:01.340Z,0.33
2024-01-14T02:42:01.355Z,0.29
2024-01-14T02:43:01.350Z,0.28
2024-01-14T02:44:01.347Z,0.26
2024-01-14T02:45:01.400Z,0.21
2024-01-14T02:46:01.363Z,0.15
2024-01-14T02:47:01.382Z,0.11
2024-01-14T02:48:01.515Z,0.14
2024-01-14T02:49:01.507Z,0.17
2024-01-14T02:50:01.493Z,0.21
2024-01-14T02:51:01.434Z,0.23
2024-01-14T02:52:01.403Z,0.26
2024-01-14T02:53:01.414Z,0.24
2024-01-14T02:54:01.466Z,0.28
2024-01-14T02:55:01.426Z,0.31
2024-01-14T02:56:01.427Z,0.31
2024-01-14T02:57:01.475Z,0.32
2024-01-14T02:58:01.435Z,0.35
2024-01-14T02:59:01.452Z,0.35
2024-01-14T03:00:01.625Z,0.32
2024-01-14T03:01:01.566Z,0.36
2024-01-14T03:02:01.469Z,0.33
2024-01-14T03:03:01.623Z,0.33
2024-01-14T03:04:01.611Z,0.28
2024-01-14T03:05:01.471Z,0.28
2024-01-14T03:06:01.517Z,0.35
2024-01-14T03:07:01.552Z,0.29
2024-01-14T03:08:01.492Z,0.26
2024-01-14T03:09:01.564Z,0.28
2024-01-14T03:10:01.544Z,0.21
2024-01-14T03:11:01.530Z,0.24
2024-01-14T03:12:01.562Z,0.31
2024-01-14T03:13:01.520Z,0.31
2024-01-14T03:14:01.520Z,0.35
2024-01-14T03:15:01.546Z,0.29
2024-01-14T03:16:01.516Z,0.29
2024-01-14T03:17:01.525Z,0.32
2024-01-14T03:18:01.692Z,0.29
2024-01-14T03:19:01.674Z,0.29
2024-01-14T03:20:01.690Z,0.31
2024-01-14T03:21:01.568Z,0.33
2024-01-14T03:22:01.594Z,0.38
2024-01-14T03:23:01.569Z,0.33
2024-01-14T03:24:01.617Z,0.29
2024-01-14T03:25:01.629Z,0.23
2024-01-14T03:26:01.561Z,0.14
2024-01-14T03:27:01.624Z,0.21
2024-01-14T03:28:01.570Z,0.26
2024-01-14T03:29:01.584Z,0.23
2024-01-14T03:30:01.734Z,0.33
2024-01-14T03:31:01.654Z,0.28
2024-01-14T03:32:01.614Z,0.24
2024-01-14T03:33:01.727Z,0.41
2024-01-14T03:34:01.713Z,0.35
2024-01-14T03:35:01.607Z,0.36
2024-01-14T03:36:01.653Z,0.32
2024-01-14T03:37:01.618Z,0.33
2024-01-14T03:38:01.617Z,0.36
2024-01-14T03:39:01.711Z,0.32
2024-01-14T03:40:01.631Z,0.31
2024-01-14T03:41:01.625Z,0.38
2024-01-14T03:42:01.656Z,0.36
2024-01-14T03:43:01.665Z,0.36
2024-01-14T03:44:01.648Z,0.35
2024-01-14T03:45:01.682Z,0.41
2024-01-14T03:46:01.637Z,0.21
2024-01-14T03:47:01.666Z,0.26
2024-01-14T03:48:01.816Z,0.28
2024-01-14T03:49:01.762Z,0.36
2024-01-14T03:50:01.653Z,0.44
2024-01-14T03:51:01.684Z,0.42
2024-01-14T03:52:01.683Z,0.42
2024-01-14T03:53:01.790Z,0.42
2024-01-14T03:54:01.701Z,0.39
2024-01-14T03:55:01.669Z,0.38
2024-01-14T03:56:01.685Z,0.46
2024-01-14T03:57:01.698Z,0.46
2024-01-14T03:58:01.679Z,0.32
2024-01-14T03:59:01.692Z,0.44
2024-01-14T04:00:01.920Z,0.46
2024-01-14T04:01:01.734Z,0.42
2024-01-14T04:02:01.748Z,0.49
2024-01-14T04:03:01.761Z,0.55
2024-01-14T04:04:01.818Z,0.50
2024-01-14T04:05:01.710Z,0.55
2024-01-14T04:06:01.754Z,0.57
2024-01-14T04:07:01.765Z,0.55
2024-01-14T04:08:01.723Z,0.60
2024-01-14T04:09:01.823Z,0.66
2024-01-14T04:10:01.717Z,0.68
2024-01-14T04:11:01.722Z,0.78
2024-01-14T04:12:01.742Z,0.73
2024-01-14T04:13:01.730Z,0.76
2024-01-14T04:14:01.728Z,0.72
2024-01-14T04:15:01.864Z,0.72
2024-01-14T04:16:02.420Z,0.83
2024-01-14T04:17:01.744Z,0.84
2024-01-14T04:18:01.868Z,0.84
2024-01-14T04:19:01.876Z,0.84
2024-01-14T04:20:01.861Z,0.91
2024-01-14T04:21:01.838Z,0.86
2024-01-14T04:22:01.751Z,0.88
2024-01-14T04:23:01.767Z,0.98
2024-01-14T04:24:01.904Z,1.00
2024-01-14T04:25:01.765Z,1.11
2024-01-14T04:26:01.780Z,1.14
2024-01-14T04:27:01.829Z,1.29
2024-01-14T04:28:01.790Z,1.29
2024-01-14T04:29:01.787Z,1.48
2024-01-14T04:30:01.877Z,1.51
2024-01-14T04:31:01.942Z,1.51
2024-01-14T04:32:01.803Z,1.58
2024-01-14T04:33:02.051Z,1.80
2024-01-14T04:34:01.873Z,1.83
2024-01-14T04:35:01.950Z,2.07
2024-01-14T04:36:01.884Z,2.03
2024-01-14T04:37:01.828Z,1.93
2024-01-14T04:38:02.082Z,1.83
2024-01-14T04:39:01.933Z,1.83
2024-01-14T04:40:01.855Z,1.81
2024-01-14T04:41:01.836Z,1.76
2024-01-14T04:42:01.851Z,1.63
2024-01-14T04:43:01.849Z,1.68
2024-01-14T04:44:01.848Z,1.63
2024-01-14T04:45:01.884Z,1.63
2024-01-14T04:46:01.877Z,1.63
2024-01-14T04:47:01.869Z,1.55
2024-01-14T04:48:02.064Z,1.51
2024-01-14T04:49:02.064Z,1.52
2024-01-14T04:50:02.175Z,1.50
2024-01-14T04:51:01.908Z,1.45
2024-01-14T04:52:01.886Z,1.47
2024-01-14T04:53:01.916Z,1.41
2024-01-14T04:54:01.898Z,1.42
2024-01-14T04:55:01.910Z,1.40
2024-01-14T04:56:01.930Z,1.30
2024-01-14T04:57:01.938Z,1.34
2024-01-14T04:58:01.903Z,1.33
2024-01-14T04:59:01.911Z,1.37
2024-01-14T05:00:02.154Z,1.36
2024-01-14T05:01:01.999Z,1.32
2024-01-14T05:02:01.938Z,1.27
2024-01-14T05:03:01.989Z,1.27
2024-01-14T05:04:02.037Z,1.22
2024-01-14T05:05:01.964Z,1.23
2024-01-14T05:06:02.156Z,1.20
2024-01-14T05:07:01.963Z,1.32
2024-01-14T05:08:01.950Z,1.40
2024-01-14T05:09:01.979Z,1.45
2024-01-14T05:10:02.007Z,1.50
2024-01-14T05:11:01.968Z,1.54
2024-01-14T05:12:02.118Z,1.59
2024-01-14T05:13:01.986Z,1.63
2024-01-14T05:14:02.001Z,1.66
2024-01-14T05:15:02.033Z,1.72
2024-01-14T05:16:01.995Z,1.65
2024-01-14T05:17:02.011Z,1.58
2024-01-14T05:18:02.139Z,1.58
2024-01-14T05:19:02.095Z,1.51
2024-01-14T05:20:02.015Z,1.51
2024-01-14T05:21:02.025Z,1.41
2024-01-14T05:22:02.015Z,1.41
2024-01-14T05:23:02.023Z,1.40
2024-01-14T05:24:02.092Z,1.34
2024-01-14T05:25:02.033Z,1.47
2024-01-14T05:26:02.037Z,1.48
2024-01-14T05:27:02.104Z,1.52
2024-01-14T05:28:02.074Z,1.42
2024-01-14T05:29:02.063Z,1.37
2024-01-14T05:30:02.184Z,1.50
2024-01-14T05:31:02.257Z,1.42
2024-01-14T05:32:02.065Z,1.36
2024-01-14T05:33:02.135Z,1.29
2024-01-14T05:34:02.175Z,1.27
2024-01-14T05:35:02.083Z,1.27
2024-01-14T05:36:02.158Z,1.27
2024-01-14T05:37:02.090Z,1.34
2024-01-14T05:38:02.097Z,1.24
2024-01-14T05:39:02.149Z,1.23
2024-01-14T05:40:02.098Z,1.24
2024-01-14T05:41:02.101Z,1.23
2024-01-14T05:42:02.127Z,1.18
2024-01-14T05:43:02.125Z,1.26
2024-01-14T05:44:02.132Z,1.29
2024-01-14T05:45:02.221Z,1.14
2024-01-14T05:46:02.142Z,1.09
2024-01-14T05:47:02.141Z,1.14
2024-01-14T05:48:02.286Z,1.12
2024-01-14T05:49:02.302Z,1.16
2024-01-14T05:50:02.321Z,1.22
2024-01-14T05:51:02.227Z,1.24
2024-01-14T05:52:02.154Z,1.20
2024-01-14T05:53:02.160Z,1.33
2024-01-14T05:54:02.196Z,1.32
2024-01-14T05:55:02.164Z,1.34
2024-01-14T05:56:02.171Z,1.34
2024-01-14T05:57:02.196Z,1.37
2024-01-14T05:58:02.193Z,1.34
2024-01-14T05:59:02.204Z,1.34
2024-01-14T06:00:02.337Z,1.45
2024-01-14T06:01:02.267Z,1.37
2024-01-14T06:02:02.241Z,1.37
2024-01-14T06:03:02.232Z,1.36
2024-01-14T06:04:02.226Z,1.44
2024-01-14T06:05:02.278Z,1.36
2024-01-14T06:06:02.415Z,1.42
2024-01-14T06:07:02.323Z,1.37
2024-01-14T06:08:02.217Z,1.33
2024-01-14T06:09:02.322Z,1.34
2024-01-14T06:10:02.232Z,1.34
2024-01-14T06:11:02.245Z,1.27
2024-01-14T06:12:02.323Z,1.34
2024-01-14T06:13:02.337Z,1.32
2024-01-14T06:14:02.304Z,1.24
2024-01-14T06:15:02.311Z,1.27
2024-01-14T06:16:02.269Z,1.32
2024-01-14T06:17:02.262Z,1.26
2024-01-14T06:18:02.420Z,1.33
2024-01-14T06:19:02.501Z,1.34
2024-01-14T06:20:02.568Z,1.47
2024-01-14T06:21:02.342Z,1.42
2024-01-14T06:22:02.279Z,1.55
2024-01-14T06:23:02.290Z,1.48
2024-01-14T06:24:02.375Z,1.63
2024-01-14T06:25:02.291Z,1.63
2024-01-14T06:26:02.328Z,1.66
2024-01-14T06:27:02.325Z,1.69
2024-01-14T06:28:02.320Z,1.62
2024-01-14T06:29:02.322Z,1.59
2024-01-14T06:30:02.474Z,1.44
2024-01-14T06:31:02.416Z,1.50
2024-01-14T06:32:02.377Z,1.36
2024-01-14T06:33:02.567Z,1.44
2024-01-14T06:34:02.459Z,1.36
2024-01-14T06:35:02.463Z,1.47
2024-01-14T06:36:02.388Z,1.33
2024-01-14T06:37:02.344Z,1.40
2024-01-14T06:38:02.349Z,1.33
2024-01-14T06:39:02.421Z,1.37
2024-01-14T06:40:02.376Z,1.40
2024-01-14T06:41:09.591Z,1.40
2024-01-14T06:42:02.519Z,1.54
2024-01-14T06:43:02.385Z,1.66
2024-01-14T06:44:02.379Z,1.98
2024-01-14T06:45:02.436Z,2.24
2024-01-14T06:46:02.380Z,2.30
2024-01-14T06:47:02.393Z,2.35
2024-01-14T06:48:02.619Z,2.39
2024-01-14T06:49:02.499Z,2.54
2024-01-14T06:50:10.715Z,2.49
2024-01-14T06:51:02.427Z,2.64
2024-01-14T06:52:02.412Z,2.89
2024-01-14T06:53:02.424Z,2.79
2024-01-14T06:54:02.447Z,2.81
2024-01-14T06:55:02.434Z,2.75
2024-01-14T06:56:02.441Z,2.74
2024-01-14T06:57:02.472Z,2.66
2024-01-14T06:58:02.450Z,2.57
2024-01-14T06:59:02.443Z,2.53
2024-01-14T07:00:02.666Z,2.43
2024-01-14T07:01:02.572Z,2.28
2024-01-14T07:02:02.451Z,2.28
2024-01-14T07:03:02.496Z,2.14
2024-01-14T07:04:02.573Z,2.17
2024-01-14T07:05:02.460Z,1.99
2024-01-14T07:06:02.669Z,1.99
2024-01-14T07:07:02.535Z,1.84
2024-01-14T07:08:02.478Z,2.17
2024-01-14T07:09:02.523Z,2.17
2024-01-14T07:10:02.519Z,2.06
2024-01-14T07:11:02.560Z,2.09
2024-01-14T07:12:02.584Z,1.93
2024-01-14T07:13:02.499Z,1.83
2024-01-14T07:14:02.508Z,1.83
2024-01-14T07:15:02.653Z,1.81
2024-01-14T07:16:02.518Z,1.80
2024-01-14T07:17:02.569Z,1.70
2024-01-14T07:18:02.655Z,1.65
2024-01-14T07:19:02.779Z,1.86
2024-01-14T07:20:02.987Z,2.21
2024-01-14T07:21:02.583Z,2.34
2024-01-14T07:22:02.565Z,2.30
2024-01-14T07:23:40.461Z,2.34
2024-01-14T07:24:02.615Z,2.30
2024-01-14T07:25:02.585Z,2.24
2024-01-14T07:26:02.564Z,2.14
2024-01-14T07:27:02.649Z,2.27
2024-01-14T07:28:02.571Z,2.23
2024-01-14T07:29:02.598Z,2.10
2024-01-14T07:30:02.709Z,2.09
2024-01-14T07:31:02.681Z,2.16
2024-01-14T07:32:05.831Z,2.20
2024-01-14T07:33:02.694Z,2.00
2024-01-14T07:34:02.788Z,1.87
2024-01-14T07:35:02.604Z,1.86
2024-01-14T07:36:02.658Z,1.73
2024-01-14T07:37:02.624Z,1.65
2024-01-14T07:38:02.617Z,1.50
2024-01-14T07:39:02.683Z,1.34
2024-01-14T07:40:02.630Z,1.42
2024-01-14T07:41:02.631Z,1.34
2024-01-14T07:42:02.668Z,1.30
2024-01-14T07:43:02.653Z,1.26
2024-01-14T07:44:02.650Z,1.11
2024-01-14T07:45:02.667Z,1.16
2024-01-14T07:46:02.653Z,1.15
2024-01-14T07:47:02.662Z,1.12
2024-01-14T07:48:02.829Z,1.04
2024-01-14T07:49:02.833Z,1.05
2024-01-14T07:50:02.678Z,1.02
2024-01-14T07:51:02.787Z,1.00
2024-01-14T07:52:02.719Z,0.97
2024-01-14T07:53:02.684Z,1.00
2024-01-14T07:54:02.738Z,0.96
2024-01-14T07:55:02.700Z,0.97
2024-01-14T07:56:02.720Z,0.84
2024-01-14T07:57:02.726Z,0.79
2024-01-14T07:58:02.717Z,0.80
2024-01-14T07:59:02.713Z,0.87
2024-01-14T08:00:02.966Z,0.83
2024-01-14T08:01:03.720Z,0.80
2024-01-14T08:02:02.730Z,0.84
2024-01-14T08:03:02.744Z,0.90
2024-01-14T08:04:02.977Z,0.94
2024-01-14T08:05:02.800Z,0.88
2024-01-14T08:06:02.786Z,0.93
2024-01-14T08:07:02.769Z,0.88
2024-01-14T08:08:02.785Z,0.93
2024-01-14T08:09:02.783Z,0.98
2024-01-14T08:10:02.770Z,1.00
2024-01-14T08:11:02.776Z,0.97
2024-01-14T08:12:02.801Z,0.97
2024-01-14T08:13:02.768Z,1.00
2024-01-14T08:14:02.777Z,1.16
2024-01-14T08:15:02.819Z,1.15
2024-01-14T08:16:03.717Z,1.22
2024-01-14T08:17:02.789Z,1.14
2024-01-14T08:18:07.102Z,1.22
2024-01-14T08:19:02.891Z,1.20
2024-01-14T08:20:03.102Z,1.36
2024-01-14T08:21:02.917Z,1.33
2024-01-14T08:22:02.841Z,1.34
2024-01-14T08:23:02.819Z,1.36
2024-01-14T08:24:02.861Z,1.37
2024-01-14T08:25:02.841Z,1.36
2024-01-14T08:26:02.854Z,1.33
2024-01-14T08:27:02.867Z,1.42
2024-01-14T08:28:02.838Z,1.32
2024-01-14T08:29:10.588Z,1.27
2024-01-14T08:30:03.010Z,1.34
2024-01-14T08:31:02.988Z,1.40
2024-01-14T08:32:02.874Z,1.51
2024-01-14T08:33:03.082Z,1.48
2024-01-14T08:34:02.956Z,1.45
2024-01-14T08:35:02.911Z,1.45
2024-01-14T08:36:02.915Z,1.50
2024-01-14T08:37:02.884Z,1.42
2024-01-14T08:38:02.912Z,1.48
2024-01-14T08:39:02.949Z,1.51
2024-01-14T08:40:02.917Z,1.47
2024-01-14T08:41:02.911Z,1.50
2024-01-14T08:42:02.938Z,1.51
2024-01-14T08:43:02.906Z,1.60
2024-01-14T08:44:03.018Z,1.58
2024-01-14T08:45:02.949Z,1.68
2024-01-14T08:46:02.932Z,1.68
2024-01-14T08:47:03.046Z,1.76
2024-01-14T08:48:03.090Z,1.80
2024-01-14T08:49:03.207Z,1.80
2024-01-14T08:50:02.986Z,2.02
2024-01-14T08:51:02.974Z,2.00
2024-01-14T08:52:02.987Z,2.03
2024-01-14T08:53:02.952Z,2.17
2024-01-14T08:54:03.031Z,2.16
2024-01-14T08:55:02.984Z,2.16
2024-01-14T08:56:02.997Z,2.27
2024-01-14T08:57:05.637Z,2.28
2024-01-14T08:58:03.002Z,2.34
2024-01-14T08:59:03.087Z,2.38
2024-01-14T09:00:03.033Z,2.36
2024-01-14T09:01:03.234Z,2.48
2024-01-14T09:02:03.007Z,2.48
2024-01-14T09:03:03.038Z,2.56
2024-01-14T09:04:03.133Z,2.49
2024-01-14T09:05:03.052Z,2.67
2024-01-14T09:06:03.194Z,2.78
2024-01-14T09:07:03.097Z,2.82
2024-01-14T09:08:03.033Z,2.84
2024-01-14T09:09:03.055Z,2.85
2024-01-14T09:10:03.043Z,2.84
2024-01-14T09:11:03.048Z,2.96
2024-01-14T09:12:03.117Z,3.08
2024-01-14T09:13:03.055Z,3.26
2024-01-14T09:14:03.065Z,3.36
2024-01-14T09:15:03.105Z,3.50
2024-01-14T09:16:03.083Z,3.57
2024-01-14T09:17:03.081Z,3.52
2024-01-14T09:18:03.247Z,3.61
2024-01-14T09:19:03.190Z,3.69
2024-01-14T09:20:03.230Z,3.68
2024-01-14T09:21:03.155Z,3.75
2024-01-14T09:22:03.219Z,3.83
2024-01-14T09:23:03.130Z,3.83
2024-01-14T09:24:03.178Z,3.96
2024-01-14T09:25:03.135Z,4.08
2024-01-14T09:26:03.158Z,4.24
2024-01-14T09:27:03.181Z,4.24
2024-01-14T09:28:03.177Z,4.23
2024-01-14T09:29:03.158Z,4.29
2024-01-14T09:30:03.259Z,4.44
2024-01-14T09:31:03.272Z,4.45
2024-01-14T09:32:03.223Z,4.47
2024-01-14T09:33:03.351Z,4.54
2024-01-14T09:34:03.298Z,4.51
2024-01-14T09:35:03.270Z,4.63
2024-01-14T09:36:03.287Z,4.69
2024-01-14T09:37:03.214Z,4.70
2024-01-14T09:38:03.205Z,4.78
2024-01-14T09:39:03.249Z,4.88
2024-01-14T09:40:03.224Z,4.99
2024-01-14T09:41:03.248Z,5.06
2024-01-14T09:42:03.300Z,5.17
2024-01-14T09:43:03.225Z,5.15
2024-01-14T09:44:03.273Z,5.17
2024-01-14T09:45:03.572Z,5.24
2024-01-14T09:46:03.340Z,5.22
2024-01-14T09:47:03.257Z,5.18
2024-01-14T09:48:03.461Z,5.25
2024-01-14T09:49:03.554Z,5.31
2024-01-14T09:50:03.558Z,5.31
2024-01-14T09:51:03.302Z,5.33
2024-01-14T09:52:03.288Z,5.25
2024-01-14T09:53:03.333Z,5.24
2024-01-14T09:54:03.506Z,5.33
2024-01-14T09:55:03.422Z,5.42
2024-01-14T09:56:03.323Z,5.31
2024-01-14T09:57:03.367Z,5.18
2024-01-14T09:58:03.340Z,5.03
2024-01-14T09:59:03.342Z,4.88
2024-01-14T10:00:03.476Z,4.75
2024-01-14T10:01:03.512Z,4.62
2024-01-14T10:02:03.360Z,4.69
2024-01-14T10:03:05.687Z,4.77
2024-01-14T10:04:03.425Z,4.84
2024-01-14T10:05:03.385Z,4.80
2024-01-14T10:06:03.499Z,5.00
2024-01-14T10:07:03.531Z,5.00
2024-01-14T10:08:03.399Z,5.12
2024-01-14T10:09:03.456Z,5.10
2024-01-14T10:10:03.410Z,5.15
2024-01-14T10:11:03.419Z,5.27
2024-01-14T10:12:03.486Z,5.33
2024-01-14T10:13:03.435Z,5.49
2024-01-14T10:14:03.441Z,5.68
2024-01-14T10:15:03.535Z,5.63
2024-01-14T10:16:48.646Z,5.65
2024-01-14T10:17:03.510Z,5.68
2024-01-14T10:18:03.546Z,5.64
2024-01-14T10:19:03.600Z,5.72
2024-01-14T10:20:03.503Z,5.86
2024-01-14T10:21:03.508Z,5.99
2024-01-14T10:22:15.000Z,6.08
2024-01-14T10:23:03.509Z,6.25
2024-01-14T10:24:03.540Z,6.30
2024-01-14T10:25:03.526Z,6.18
2024-01-14T10:26:03.548Z,6.04
2024-01-14T10:27:03.549Z,6.09
2024-01-14T10:28:03.604Z,6.00
2024-01-14T10:29:03.552Z,6.03
2024-01-14T10:30:03.619Z,5.79
2024-01-14T10:31:03.798Z,5.65
2024-01-14T10:32:03.594Z,5.79
2024-01-14T10:33:19.306Z,5.97
2024-01-14T10:34:03.891Z,5.91
2024-01-14T10:35:06.422Z,5.86
2024-01-14T10:36:03.870Z,5.97
2024-01-14T10:37:03.645Z,5.97
2024-01-14T10:38:03.640Z,6.01
2024-01-14T10:39:03.933Z,6.08
2024-01-14T10:40:03.636Z,6.04
2024-01-14T10:41:04.837Z,5.90
2024-01-14T10:42:03.750Z,5.79
2024-01-14T10:43:03.668Z,5.68
2024-01-14T10:44:03.695Z,5.48
2024-01-14T10:45:03.731Z,5.71
2024-01-14T10:46:03.722Z,5.82
2024-01-14T10:47:05.205Z,6.08
2024-01-14T10:48:03.815Z,6.27
2024-01-14T10:49:03.767Z,6.51
2024-01-14T10:50:03.727Z,6.59
2024-01-14T10:51:03.750Z,6.80
2024-01-14T10:52:03.730Z,6.95
2024-01-14T10:53:03.738Z,7.39
2024-01-14T10:54:03.766Z,7.32
2024-01-14T10:55:03.752Z,7.52
2024-01-14T10:56:03.803Z,7.63
2024-01-14T10:57:03.796Z,7.82
2024-01-14T10:58:03.777Z,8.02
2024-01-14T10:59:03.814Z,8.18
2024-01-14T11:00:03.822Z,8.28
2024-01-14T11:01:04.172Z,8.15
2024-01-14T11:02:03.811Z,8.26
2024-01-14T11:03:03.960Z,8.05
2024-01-14T11:04:04.105Z,7.72
2024-01-14T11:05:03.913Z,7.75
2024-01-14T11:06:04.078Z,7.69
2024-01-14T11:07:03.860Z,7.53
2024-01-14T11:08:03.861Z,7.52
2024-01-14T11:09:03.914Z,7.60
2024-01-14T11:10:03.925Z,7.53
2024-01-14T11:11:03.924Z,7.53
2024-01-14T11:12:03.967Z,7.57
2024-01-14T11:13:03.953Z,7.55
2024-01-14T11:14:03.916Z,7.58
2024-01-14T11:15:04.008Z,7.82
2024-01-14T11:16:03.960Z,7.97
2024-01-14T11:17:03.945Z,8.26
2024-01-14T11:18:04.096Z,8.30
2024-01-14T11:19:05.043Z,8.53
2024-01-14T11:20:04.248Z,8.56
2024-01-14T11:21:15.316Z,8.56
2024-01-14T11:22:15.269Z,8.73
2024-01-14T11:23:04.684Z,8.92
2024-01-14T11:24:04.179Z,9.11
2024-01-14T11:25:04.294Z,9.21
2024-01-14T11:26:04.026Z,9.23
2024-01-14T11:27:10.059Z,9.15
2024-01-14T11:28:04.130Z,9.31
2024-01-14T11:29:04.066Z,9.15
2024-01-14T11:30:04.300Z,8.98
2024-01-14T11:31:04.249Z,9.23
2024-01-14T11:32:04.132Z,9.24
2024-01-14T11:33:04.358Z,9.21
2024-01-14T11:34:04.269Z,8.84
2024-01-14T11:35:04.768Z,8.81
2024-01-14T11:36:04.229Z,8.77
2024-01-14T11:37:04.134Z,8.68
2024-01-14T11:38:04.144Z,8.52
2024-01-14T11:39:04.183Z,8.48
2024-01-14T11:40:04.173Z,8.29
2024-01-14T11:41:04.199Z,8.26
2024-01-14T11:42:04.232Z,8.18
2024-01-14T11:43:04.195Z,8.02
2024-01-14T11:44:04.199Z,7.89
2024-01-14T11:45:04.243Z,7.85
2024-01-14T11:46:04.226Z,7.90
2024-01-14T11:47:04.244Z,7.86
2024-01-14T11:48:04.371Z,7.86
2024-01-14T11:49:10.240Z,7.80
2024-01-14T11:50:04.326Z,7.58
2024-01-14T11:51:04.328Z,7.63
2024-01-14T11:52:04.324Z,7.74
2024-01-14T11:53:04.290Z,7.50
2024-01-14T11:54:04.331Z,7.45
2024-01-14T11:55:04.318Z,7.32
2024-01-14T11:56:04.313Z,7.28
2024-01-14T11:57:04.365Z,7.25
2024-01-14T11:58:04.335Z,7.10
2024-01-14T11:59:04.349Z,7.12
2024-01-14T12:00:04.466Z,6.81
2024-01-14T12:01:04.488Z,6.81
2024-01-14T12:02:04.384Z,6.69
2024-01-14T12:03:04.419Z,6.70
2024-01-14T12:04:04.447Z,6.61
2024-01-14T12:05:11.119Z,6.67
2024-01-14T12:06:04.635Z,6.69
2024-01-14T12:07:04.574Z,6.66
2024-01-14T12:08:04.462Z,6.74
2024-01-14T12:09:04.490Z,6.84
2024-01-14T12:10:04.458Z,7.03
2024-01-14T12:11:04.473Z,7.17
2024-01-14T12:12:04.497Z,7.23
2024-01-14T12:13:04.505Z,7.28
2024-01-14T12:14:04.494Z,7.40
2024-01-14T12:15:04.520Z,7.50
2024-01-14T12:16:04.584Z,7.55
2024-01-14T12:17:04.523Z,7.63
2024-01-14T12:18:04.740Z,7.58
2024-01-14T12:19:04.642Z,7.52
2024-01-14T12:20:04.717Z,7.53
2024-01-14T12:21:11.659Z,7.45
2024-01-14T12:22:04.655Z,7.30
2024-01-14T12:23:04.589Z,7.27
2024-01-14T12:24:04.651Z,7.28
2024-01-14T12:25:04.720Z,7.42
2024-01-14T12:26:04.602Z,7.52
2024-01-14T12:27:04.630Z,7.43
2024-01-14T12:28:04.725Z,7.46
2024-01-14T12:29:04.622Z,7.30
2024-01-14T12:30:04.819Z,7.32
2024-01-14T12:31:04.738Z,7.30
2024-01-14T12:32:04.805Z,7.45
2024-01-14T12:33:04.769Z,7.57
2024-01-14T12:34:04.988Z,7.42
2024-01-14T12:35:04.701Z,7.48
2024-01-14T12:36:04.731Z,7.53
2024-01-14T12:37:04.887Z,7.61
2024-01-14T12:38:04.736Z,7.58
2024-01-14T12:39:04.762Z,7.95
2024-01-14T12:40:04.763Z,8.19
2024-01-14T12:41:04.736Z,8.43
2024-01-14T12:42:04.771Z,8.58
2024-01-14T12:43:04.756Z,8.58
2024-01-14T12:44:04.764Z,8.33
2024-01-14T12:45:04.850Z,8.30
2024-01-14T12:46:04.793Z,8.05
2024-01-14T12:47:04.811Z,8.11
2024-01-14T12:48:04.969Z,8.12
2024-01-14T12:49:12.370Z,8.15
2024-01-14T12:50:05.020Z,8.20
2024-01-14T12:51:04.877Z,8.28
2024-01-14T12:52:04.909Z,8.48
2024-01-14T12:53:04.855Z,8.79
2024-01-14T12:54:08.142Z,8.44
2024-01-14T12:55:04.925Z,8.28
2024-01-14T12:56:04.938Z,8.28
2024-01-14T12:57:13.137Z,8.28
2024-01-14T12:58:05.003Z,8.11
2024-01-14T12:59:04.927Z,8.12
2024-01-14T13:00:04.992Z,8.00
2024-01-14T13:01:05.111Z,7.85
2024-01-14T13:02:04.980Z,7.80
2024-01-14T13:03:05.137Z,7.45
2024-01-14T13:04:04.997Z,7.28
2024-01-14T13:05:05.031Z,6.92
2024-01-14T13:06:05.057Z,6.80
2024-01-14T13:07:12.101Z,6.73
2024-01-14T13:08:05.029Z,6.80
2024-01-14T13:09:05.054Z,6.77
2024-01-14T13:10:05.027Z,7.02
2024-01-14T13:11:05.063Z,7.17
2024-01-14T13:12:05.109Z,7.27
2024-01-14T13:13:05.054Z,7.30
2024-01-14T13:14:05.085Z,7.25
2024-01-14T13:15:05.112Z,7.34
2024-01-14T13:16:05.212Z,7.39
2024-01-14T13:17:05.106Z,7.50
2024-01-14T13:18:08.816Z,7.57
2024-01-14T13:19:05.205Z,7.27